Time;durP1;ratioP1;P1;durP2;ratioP2;P2;SDS_P1;SDS_P2;PMS_P1;PMS_P2;Temp;Humidity;BMP_temperature;BMP_pressure;BME280_temperature;BME280_humidity;BME280_pressure;Samples;Min_cycle;Max_cycle;Signal;HPM_P1;HPM_P2
2022/06/07 00:00:56;;;;;;;4.93;2.67;;;;;;;20.69;50.99;101279.69;4867400;29;20120;-88
2022/06/07 00:03:22;;;;;;;3.17;2.28;;;;;;;20.69;51.04;101280.56;4867203;29;20116;-89
2022/06/07 00:05:48;;;;;;;4.55;2.38;;;;;;;20.71;50.93;101280.53;4867126;29;20061;-76
2022/06/07 00:08:16;;;;;;;4.28;2.40;;;;;;;20.65;50.91;101285.84;4866154;29;20080;-76
2022/06/07 00:10:45;;;;;;;3.92;2.53;;;;;;;20.63;50.97;101285.88;4850934;29;20503;-76
2022/06/07 00:13:11;;;;;;;2.65;2.08;;;;;;;20.67;50.88;101284.94;4882930;29;20029;-76
2022/06/07 00:15:38;;;;;;;3.88;2.20;;;;;;;20.64;51.05;101287.59;4866158;29;20388;-76
2022/06/07 00:18:04;;;;;;;3.95;2.25;;;;;;;20.67;50.84;101281.47;4866241;29;20425;-76
2022/06/07 00:20:29;;;;;;;3.70;2.60;;;;;;;20.66;51.08;101277.97;4867136;29;20033;-75
2022/06/07 00:22:55;;;;;;;5.28;2.75;;;;;;;20.66;50.68;101269.25;4866157;29;20037;-76
2022/06/07 00:25:22;;;;;;;5.15;2.40;;;;;;;20.67;50.79;101266.63;4882813;29;20387;-75
2022/06/07 00:27:48;;;;;;;4.50;2.70;;;;;;;20.68;50.87;101270.97;4850784;29;20032;-76
2022/06/07 00:30:14;;;;;;;4.45;2.40;;;;;;;20.66;50.97;101262.28;4866080;29;20032;-74
2022/06/07 00:32:41;;;;;;;4.03;2.40;;;;;;;20.69;50.76;101266.63;4850775;29;20040;-76
2022/06/07 00:35:07;;;;;;;3.47;2.40;;;;;;;20.66;50.94;101264.91;4882681;29;20104;-76
2022/06/07 00:37:33;;;;;;;4.72;2.70;;;;;;;20.66;50.96;101258.81;4882663;29;20429;-76
2022/06/07 00:39:58;;;;;;;4.75;2.70;;;;;;;20.67;50.79;101257.94;4850857;29;20029;-76
2022/06/07 00:42:23;;;;;;;8.68;2.88;;;;;;;20.67;50.64;101253.56;4864508;29;20488;-76
2022/06/07 00:44:49;;;;;;;7.07;2.83;;;;;;;20.67;51.00;101250.09;4850467;29;20065;-87
2022/06/07 00:47:17;;;;;;;3.53;2.90;;;;;;;20.64;50.80;101255.34;4866477;29;20480;-88
2022/06/07 00:50:04;;;;;;;4.50;2.97;;;;;;;20.63;51.10;101257.09;4883574;29;20033;-88
2022/06/07 00:52:32;;;;;;;4.68;3.00;;;;;;;20.61;50.90;101253.66;4866918;29;20028;-88
2022/06/07 00:54:58;;;;;;;3.70;2.67;;;;;;;20.64;51.07;101255.34;4883881;29;20071;-88
2022/06/07 00:57:24;;;;;;;4.13;2.60;;;;;;;20.65;50.86;101252.72;4851425;29;20053;-87
2022/06/07 00:59:53;;;;;;;3.47;2.70;;;;;;;20.67;51.03;101250.94;4882495;29;20129;-88
2022/06/07 01:02:20;;;;;;;3.65;2.78;;;;;;;20.68;51.00;101246.56;4852007;29;20080;-88
2022/06/07 01:04:45;;;;;;;5.47;2.88;;;;;;;20.68;50.86;101247.44;4867355;29;20033;-89
2022/06/07 01:12:39;;;;;;;3.90;2.78;;;;;;;20.65;50.93;101242.25;4882607;29;20040;-87
2022/06/07 01:15:07;;;;;;;4.93;2.90;;;;;;;20.66;51.07;101246.59;4865808;29;20033;-88
2022/06/07 01:17:32;;;;;;;3.83;2.63;;;;;;;20.65;50.80;101247.50;4865827;29;20070;-87
2022/06/07 01:19:58;;;;;;;4.10;2.70;;;;;;;20.66;50.92;101243.97;4882746;29;20063;-88
2022/06/07 01:22:23;;;;;;;4.32;2.45;;;;;;;20.67;51.07;101243.09;4882097;29;20432;-87
2022/06/07 01:24:49;;;;;;;3.92;2.70;;;;;;;20.68;51.15;101243.97;4865841;29;20108;-88
2022/06/07 01:27:15;;;;;;;4.18;2.70;;;;;;;20.66;51.02;101238.75;4865768;29;20031;-88
2022/06/07 01:29:42;;;;;;;4.35;2.75;;;;;;;20.64;50.95;101237.91;4866162;29;20035;-88
2022/06/07 01:32:09;;;;;;;3.90;2.90;;;;;;;20.64;51.02;101247.50;4850174;29;20040;-76
2022/06/07 01:34:37;;;;;;;4.65;2.40;;;;;;;20.61;51.05;101237.97;4881569;29;20096;-76
2022/06/07 01:37:03;;;;;;;3.78;2.72;;;;;;;20.61;50.96;101237.09;4864939;29;20041;-76
2022/06/07 01:42:13;;;;;;;4.35;2.75;;;;;;;20.60;50.92;101235.38;4881536;29;20392;-76
2022/06/07 01:44:43;;;;;;;4.15;2.75;;;;;;;20.61;50.82;101230.13;4849389;29;20040;-76
2022/06/07 01:47:11;;;;;;;4.70;3.00;;;;;;;20.61;51.08;101235.34;4881186;29;20032;-76
2022/06/07 01:49:40;;;;;;;4.50;2.45;;;;;;;20.62;50.99;101231.88;4881197;29;20489;-76
2022/06/07 01:52:07;;;;;;;5.07;2.53;;;;;;;20.61;50.85;101229.25;4881910;29;20089;-88
2022/06/07 01:54:32;;;;;;;4.80;2.50;;;;;;;20.63;50.94;101232.72;4882281;29;20033;-88
2022/06/07 01:56:58;;;;;;;3.47;2.30;;;;;;;20.64;50.98;101226.59;4882103;29;20040;-86
2022/06/07 01:59:23;;;;;;;5.15;2.70;;;;;;;20.64;51.02;101229.19;4881680;29;20052;-87
2022/06/07 02:01:50;;;;;;;4.07;2.80;;;;;;;20.63;50.95;101225.72;4865722;29;20037;-88
2022/06/07 02:04:16;;;;;;;3.88;2.75;;;;;;;20.63;50.89;101222.25;4881811;29;20033;-89
2022/06/07 02:06:41;;;;;;;3.63;2.75;;;;;;;20.63;50.85;101219.66;4881731;29;20045;-88
2022/06/07 02:09:09;;;;;;;3.58;2.67;;;;;;;20.63;50.91;101222.25;4864915;29;20048;-88
2022/06/07 02:11:36;;;;;;;2.75;2.35;;;;;;;20.63;50.97;101224.88;4881311;29;20037;-88
2022/06/07 02:14:01;;;;;;;3.38;2.50;;;;;;;20.62;51.00;101224.00;4849359;29;20062;-87
2022/06/07 02:16:27;;;;;;;3.65;2.63;;;;;;;20.63;50.79;101223.13;4881506;29;20076;-88
2022/06/07 02:18:52;;;;;;;5.15;3.15;;;;;;;20.61;50.96;101224.03;4865309;29;20047;-88
2022/06/07 02:21:19;;;;;;;5.93;2.80;;;;;;;20.60;50.78;101217.94;4881832;29;20484;-88
2022/06/07 02:23:45;;;;;;;3.58;2.60;;;;;;;20.60;51.02;101220.56;4881122;29;20492;-88
2022/06/07 02:26:16;;;;;;;4.47;2.58;;;;;;;20.61;50.98;101217.03;4849170;29;20066;-88
2022/06/07 02:28:49;;;;;;;3.65;2.50;;;;;;;20.61;50.96;101214.44;4881075;29;20104;-88
2022/06/07 02:31:15;;;;;;;5.70;2.90;;;;;;;20.61;50.90;101214.44;4864035;29;20088;-88
2022/06/07 02:33:42;;;;;;;3.38;2.50;;;;;;;20.58;50.71;101209.25;4881250;29;20036;-87
2022/06/07 02:36:10;;;;;;;5.10;2.88;;;;;;;20.57;51.09;101210.13;4848758;29;20503;-88
2022/06/07 02:38:35;;;;;;;3.58;2.38;;;;;;;20.56;51.01;101205.78;4864004;29;20033;-88
2022/06/07 02:41:05;;;;;;;4.75;2.75;;;;;;;20.55;51.13;101206.66;4864491;29;20045;-88
2022/06/07 02:43:31;;;;;;;4.57;2.80;;;;;;;20.58;51.01;101204.03;4864209;29;20064;-87
2022/06/07 02:45:57;;;;;;;3.83;2.60;;;;;;;20.56;50.82;101205.78;4864071;29;20060;-88
2022/06/07 02:48:22;;;;;;;5.45;2.55;;;;;;;20.53;50.37;101209.31;4880872;29;20107;-88
2022/06/07 02:50:48;;;;;;;4.60;2.53;;;;;;;20.55;51.00;101210.13;4864677;29;20451;-88
2022/06/07 02:53:13;;;;;;;5.43;2.75;;;;;;;20.58;50.79;101204.03;4864540;29;20029;-87
2022/06/07 02:55:39;;;;;;;4.50;2.70;;;;;;;20.61;50.88;101203.97;4849451;29;20506;-88
2022/06/07 02:58:05;;;;;;;5.25;2.67;;;;;;;20.57;50.86;101194.44;4864239;29;20547;-88
2022/06/07 03:00:30;;;;;;;4.80;2.40;;;;;;;20.57;51.01;101201.41;4881015;29;20592;-88
2022/06/07 03:02:56;;;;;;;4.30;2.60;;;;;;;20.57;50.82;101196.16;4848195;29;20033;-76
2022/06/07 03:05:22;;;;;;;2.60;2.15;;;;;;;20.57;50.89;101194.44;4863131;29;20037;-76
2022/06/07 03:07:48;;;;;;;5.15;2.75;;;;;;;20.58;50.95;101198.81;4863454;29;20047;-76
2022/06/07 03:10:14;;;;;;;4.40;2.78;;;;;;;20.59;50.92;101199.66;4848310;29;20033;-76
2022/06/07 03:12:39;;;;;;;3.42;2.80;;;;;;;20.60;50.83;101196.16;4864619;29;20370;-76
2022/06/07 03:15:05;;;;;;;4.10;2.50;;;;;;;20.61;50.89;101198.75;4847867;29;20480;-76
2022/06/07 03:17:31;;;;;;;4.00;2.72;;;;;;;20.63;50.88;101198.72;4863447;29;20032;-76
2022/06/07 03:19:56;;;;;;;3.60;2.30;;;;;;;20.62;50.84;101196.97;4863149;29;20033;-77
2022/06/07 03:22:23;;;;;;;4.47;2.45;;;;;;;20.62;50.77;101200.47;4879905;29;20037;-76
2022/06/07 03:24:48;;;;;;;4.28;2.40;;;;;;;20.63;50.67;101203.97;4833156;29;20048;-77
2022/06/07 03:27:15;;;;;;;4.40;2.53;;;;;;;20.58;50.70;101193.56;4879829;29;20033;-76
2022/06/07 03:29:40;;;;;;;3.38;2.22;;;;;;;20.63;50.81;101198.72;4863198;29;20117;-76
2022/06/07 03:32:07;;;;;;;5.53;2.90;;;;;;;20.62;50.74;101203.09;4863479;29;20443;-76
2022/06/07 03:34:37;;;;;;;5.60;2.05;;;;;;;20.62;50.82;101200.47;4848152;29;20061;-76
2022/06/07 03:37:03;;;;;;;3.75;2.30;;;;;;;20.63;50.63;101204.81;4863296;29;20037;-76
2022/06/07 03:39:28;;;;;;;3.25;2.20;;;;;;;20.62;50.63;101203.09;4879897;29;20035;-76
2022/06/07 03:41:54;;;;;;;4.10;2.38;;;;;;;20.62;50.68;101205.72;4863175;29;20040;-76
2022/06/07 03:44:19;;;;;;;3.08;2.22;;;;;;;20.63;50.68;101199.59;4879719;29;20472;-76
2022/06/07 03:46:46;;;;;;;3.63;2.10;;;;;;;20.60;50.67;101207.50;4879682;29;20116;-77
2022/06/07 03:49:12;;;;;;;4.75;2.50;;;;;;;20.61;50.68;101206.59;4879693;29;20116;-76
2022/06/07 03:51:38;;;;;;;3.05;2.10;;;;;;;20.62;50.29;101213.56;4863064;29;20112;-76
2022/06/07 03:54:04;;;;;;;4.57;2.42;;;;;;;20.60;50.53;101207.50;4863836;29;20029;-76
2022/06/07 03:56:30;;;;;;;3.50;2.33;;;;;;;20.60;50.63;101210.09;4879746;29;20029;-76
2022/06/07 03:58:56;;;;;;;5.53;2.58;;;;;;;20.62;50.69;101205.72;4879436;29;20416;-76
2022/06/07 04:01:23;;;;;;;3.78;2.50;;;;;;;20.64;50.55;101216.13;4879887;29;20029;-76
2022/06/07 04:03:51;;;;;;;4.47;2.47;;;;;;;20.59;50.55;101217.97;4862576;29;20127;-76
2022/06/07 04:06:25;;;;;;;3.97;2.17;;;;;;;20.60;50.48;101215.34;4862744;29;20425;-76
2022/06/07 04:08:51;;;;;;;3.92;2.28;;;;;;;20.61;50.55;101219.66;4879569;29;20029;-76
2022/06/07 04:11:20;;;;;;;3.22;2.28;;;;;;;20.63;50.52;101223.13;4879499;29;20033;-76
2022/06/07 04:13:46;;;;;;;3.90;2.38;;;;;;;20.65;50.56;101221.34;4862858;29;20077;-76
2022/06/07 04:16:14;;;;;;;3.83;2.30;;;;;;;20.66;50.57;101224.81;4863776;29;20043;-76
2022/06/07 04:18:40;;;;;;;3.78;2.15;;;;;;;20.67;50.26;101227.41;4866014;29;20033;-76
2022/06/07 04:21:06;;;;;;;4.47;2.45;;;;;;;20.64;50.53;101224.81;4882702;29;20036;-78
2022/06/07 04:23:32;;;;;;;4.43;2.55;;;;;;;20.67;50.39;101224.78;4866343;29;20039;-78
2022/06/07 04:26:17;;;;;;;3.13;2.28;;;;;;;20.68;50.41;101230.88;4882851;29;20033;-80
2022/06/07 04:28:43;;;;;;;4.38;2.25;;;;;;;20.69;50.33;101230.88;4866314;29;20035;-83
2022/06/07 04:31:13;;;;;;;3.28;2.25;;;;;;;20.66;50.44;101233.50;4882827;29;20037;-79
2022/06/07 04:33:38;;;;;;;3.58;2.33;;;;;;;20.67;50.48;101235.25;4882977;29;20421;-80
2022/06/07 04:36:13;;;;;;;5.57;2.88;;;;;;;20.67;50.30;101230.03;4851481;29;20035;-80
2022/06/07 04:38:42;;;;;;;3.33;2.40;;;;;;;20.71;50.25;101223.00;4865840;29;20507;-81
2022/06/07 04:41:14;;;;;;;4.63;2.30;;;;;;;20.74;50.29;101231.63;4865911;29;20033;-80
2022/06/07 04:43:39;;;;;;;3.80;2.50;;;;;;;20.80;50.06;101229.84;4865760;29;20025;-79
2022/06/07 04:46:08;;;;;;;4.18;2.42;;;;;;;20.77;50.22;101229.88;4865619;29;20097;-76
2022/06/07 04:48:34;;;;;;;3.63;2.83;;;;;;;20.72;50.07;101235.19;4882474;29;20025;-76
2022/06/07 04:51:06;;;;;;;4.43;2.65;;;;;;;20.65;49.51;101238.78;4882270;29;20033;-76
2022/06/07 04:53:31;;;;;;;7.13;3.13;;;;;;;20.59;49.76;101236.25;4865294;29;20025;-76
2022/06/07 04:56:06;;;;;;;4.90;2.90;;;;;;;20.57;49.91;101235.38;4850351;29;20044;-76
2022/06/07 04:58:31;;;;;;;6.65;2.95;;;;;;;20.58;49.89;101238.03;4865335;29;20433;-77
2022/06/07 05:00:57;;;;;;;5.43;3.33;;;;;;;20.57;49.69;101232.78;4850650;29;20064;-87
2022/06/07 05:03:22;;;;;;;7.72;3.25;;;;;;;20.58;49.66;101232.78;4835038;29;20370;-76
2022/06/07 05:05:47;;;;;;;6.38;2.95;;;;;;;20.64;49.69;101240.50;4865547;29;20081;-77
2022/06/07 05:08:14;;;;;;;8.98;3.13;;;;;;;20.68;49.66;101234.34;4865415;29;20122;-77
2022/06/07 05:10:41;;;;;;;6.18;3.00;;;;;;;20.72;49.73;101241.25;4865360;29;20040;-77
2022/06/07 05:13:06;;;;;;;11.38;4.20;;;;;;;20.70;49.85;101240.41;4865233;29;20035;-77
2022/06/07 05:15:32;;;;;;;13.48;4.78;;;;;;;20.72;49.81;101243.03;4882036;29;20033;-76
2022/06/07 05:17:57;;;;;;;15.00;4.90;;;;;;;20.68;50.02;101246.56;4865852;29;20037;-76
2022/06/07 05:20:23;;;;;;;12.30;5.20;;;;;;;20.70;49.88;101242.19;4881859;29;20461;-77
2022/06/07 05:22:48;;;;;;;10.30;5.50;;;;;;;20.71;49.97;101242.16;4881760;29;20061;-77
2022/06/07 05:25:14;;;;;;;10.48;4.78;;;;;;;20.71;49.89;101246.53;4865366;29;20476;-76
2022/06/07 05:27:46;;;;;;;12.57;4.78;;;;;;;20.67;49.95;101244.84;4881801;29;20116;-84
2022/06/07 05:30:14;;;;;;;11.02;5.28;;;;;;;20.71;50.13;101249.16;4865251;29;20100;-83
2022/06/07 05:32:39;;;;;;;12.27;5.28;;;;;;;20.71;49.80;101249.16;4881875;29;20029;-85
2022/06/07 05:35:05;;;;;;;10.32;4.72;;;;;;;20.73;49.83;101244.72;4865906;29;20093;-85
2022/06/07 05:37:32;;;;;;;9.85;5.25;;;;;;;20.72;49.75;101245.63;4865347;29;20514;-85
2022/06/07 05:39:57;;;;;;;11.38;5.10;;;;;;;20.69;49.85;101251.78;4849646;29;20037;-84
2022/06/07 05:42:23;;;;;;;11.27;4.85;;;;;;;20.71;49.72;101250.00;4881248;29;20039;-84
2022/06/07 05:44:48;;;;;;;10.02;5.30;;;;;;;20.74;49.74;101249.94;4881508;29;20037;-85
2022/06/07 05:47:14;;;;;;;10.27;5.03;;;;;;;20.75;49.74;101256.94;4849354;29;20039;-86
2022/06/07 05:49:39;;;;;;;9.38;4.85;;;;;;;20.73;49.74;101250.84;4881742;29;20037;-86
2022/06/07 05:52:05;;;;;;;11.25;4.82;;;;;;;20.71;49.72;101255.25;4881523;29;20056;-84
2022/06/07 05:54:34;;;;;;;11.75;5.10;;;;;;;20.73;49.71;101253.47;4849137;29;20396;-85
2022/06/07 05:57:00;;;;;;;10.13;4.97;;;;;;;20.74;49.57;101252.56;4864345;29;20468;-86
2022/06/07 05:59:26;;;;;;;13.73;4.95;;;;;;;20.73;49.71;101252.59;4864277;29;20060;-85
2022/06/07 06:01:52;;;;;;;8.73;4.95;;;;;;;20.70;49.78;101256.13;4881160;29;20044;-84
2022/06/07 06:04:18;;;;;;;11.00;5.13;;;;;;;20.69;49.85;101251.78;4864614;29;20477;-84
2022/06/07 06:06:44;;;;;;;13.43;5.22;;;;;;;20.70;49.83;101255.25;4864502;29;20036;-85
2022/06/07 06:11:54;;;;;;;9.57;5.00;;;;;;;20.64;49.85;101245.75;4867299;29;20119;-85
2022/06/07 06:14:21;;;;;;;9.18;5.03;;;;;;;20.66;49.82;101251.81;4881694;29;20095;-88
2022/06/07 06:16:46;;;;;;;11.25;4.63;;;;;;;20.72;49.70;101261.31;4849744;29;20084;-88
2022/06/07 06:19:12;;;;;;;8.57;4.53;;;;;;;20.79;49.74;101259.47;4849681;29;20503;-87
2022/06/07 06:21:43;;;;;;;10.27;4.65;;;;;;;20.81;49.72;101257.69;4865207;29;20024;-89
2022/06/07 06:24:10;;;;;;;7.65;4.40;;;;;;;20.85;49.86;101264.63;4881545;29;20112;-88
2022/06/07 06:26:40;;;;;;;6.85;4.20;;;;;;;20.84;49.86;101263.75;4864784;29;20036;-88
2022/06/07 06:29:08;;;;;;;8.80;5.13;;;;;;;20.82;49.47;101265.53;4864410;29;20033;-89
2022/06/07 06:31:34;;;;;;;10.77;5.00;;;;;;;20.84;49.70;101261.16;4864551;29;20128;-89
2022/06/07 06:34:01;;;;;;;6.50;4.15;;;;;;;20.87;49.61;101261.06;4865236;29;20548;-88
2022/06/07 06:36:30;;;;;;;9.55;4.18;;;;;;;20.86;49.80;101261.97;4881582;29;20057;-89
2022/06/07 06:38:56;;;;;;;6.85;4.22;;;;;;;20.88;49.73;101261.94;4864547;29;20024;-88
2022/06/07 06:41:24;;;;;;;10.27;4.47;;;;;;;20.89;49.50;101263.69;4864248;29;20530;-88
2022/06/07 06:43:51;;;;;;;8.50;4.32;;;;;;;20.90;49.63;101266.25;4864529;29;20108;-89
2022/06/07 06:46:20;;;;;;;10.15;4.50;;;;;;;20.88;49.23;101270.66;4864976;29;20039;-88
2022/06/07 06:48:46;;;;;;;7.78;4.28;;;;;;;20.89;49.65;101271.53;4881107;29;20033;-88
2022/06/07 06:51:15;;;;;;;10.38;4.47;;;;;;;20.88;49.73;101264.56;4849067;29;20134;-87
2022/06/07 06:53:44;;;;;;;10.77;4.57;;;;;;;20.89;49.63;101272.38;4865376;29;20037;-89
2022/06/07 06:56:11;;;;;;;7.20;4.38;;;;;;;20.91;49.50;101274.97;4850382;29;20127;-88
2022/06/07 06:58:37;;;;;;;6.85;4.55;;;;;;;20.90;49.60;101273.25;4864453;29;20082;-89
2022/06/07 07:01:13;;;;;;;7.10;3.95;;;;;;;20.91;49.56;101273.22;4849669;29;20029;-87
2022/06/07 07:03:39;;;;;;;7.38;4.28;;;;;;;20.90;49.51;101276.72;4881102;29;20369;-88
2022/06/07 07:06:10;;;;;;;6.43;4.07;;;;;;;20.92;49.42;101287.16;4848971;29;20051;-89
2022/06/07 07:08:36;;;;;;;7.03;4.10;;;;;;;20.93;49.38;101278.44;4864315;29;20028;-88
2022/06/07 07:11:27;;;;;;;8.43;3.95;;;;;;;20.93;49.34;101288.91;4864401;29;20029;-88
2022/06/07 07:13:55;;;;;;;6.68;4.18;;;;;;;20.95;49.37;101287.13;4872341;29;20048;-89
2022/06/07 07:16:26;;;;;;;6.32;4.10;;;;;;;20.94;49.18;101282.78;4867035;29;20025;-88
2022/06/07 07:18:52;;;;;;;7.28;3.88;;;;;;;20.97;49.36;101282.75;4881452;29;20052;-88
2022/06/07 07:21:26;;;;;;;8.98;4.40;;;;;;;20.93;49.18;101286.28;4837332;29;20131;-89
2022/06/07 07:23:51;;;;;;;5.90;3.83;;;;;;;20.93;49.20;101284.53;4864102;29;20477;-89
2022/06/07 07:26:21;;;;;;;8.30;4.13;;;;;;;20.94;49.31;101288.84;4833770;29;20040;-89
2022/06/07 07:28:46;;;;;;;7.80;4.00;;;;;;;20.93;49.47;101289.75;4880691;29;20033;-88
2022/06/07 07:31:21;;;;;;;5.63;4.10;;;;;;;20.92;49.32;101293.25;4864859;29;20036;-89
2022/06/07 07:33:47;;;;;;;5.72;3.90;;;;;;;20.93;49.36;101291.53;4864326;29;20021;-88
2022/06/07 07:36:12;;;;;;;7.25;3.92;;;;;;;20.93;49.47;101296.75;4880725;29;20036;-89
2022/06/07 07:38:41;;;;;;;5.07;4.00;;;;;;;20.93;49.12;101305.47;4864302;29;20037;-89
2022/06/07 07:41:27;;;;;;;5.45;4.00;;;;;;;20.93;49.33;101304.59;4864041;29;20040;-89
2022/06/07 07:43:55;;;;;;;6.45;3.63;;;;;;;20.92;49.37;101303.72;4863783;29;20064;-88
2022/06/07 07:46:22;;;;;;;7.70;4.07;;;;;;;20.93;49.10;101302.84;4866859;29;20033;-90
2022/06/07 07:48:48;;;;;;;5.13;3.50;;;;;;;20.93;49.26;101299.38;4852700;29;20506;-88
2022/06/07 07:51:38;;;;;;;6.50;3.80;;;;;;;20.91;49.03;101303.75;4869448;29;20025;-89
2022/06/07 07:54:06;;;;;;;6.75;4.00;;;;;;;20.95;49.24;101302.81;4862625;29;20613;-89
2022/06/07 07:56:32;;;;;;;6.00;3.92;;;;;;;20.96;49.08;101305.41;4867793;29;20037;-89
2022/06/07 07:58:58;;;;;;;11.48;4.25;;;;;;;20.99;49.05;101307.13;4867239;29;20053;-89
2022/06/07 08:01:26;;;;;;;6.47;3.63;;;;;;;20.99;49.14;101311.47;4867400;29;20029;-89
2022/06/07 08:03:54;;;;;;;7.20;3.80;;;;;;;21.01;49.27;101307.06;4867123;29;20029;-89
2022/06/07 08:06:22;;;;;;;5.10;3.50;;;;;;;21.01;49.02;101312.31;4867155;29;20044;-88
2022/06/07 08:08:50;;;;;;;6.60;3.60;;;;;;;21.01;48.96;101310.56;4867103;29;20392;-88
2022/06/07 08:11:18;;;;;;;4.68;3.80;;;;;;;21.04;48.79;101309.66;4867370;29;20025;-88
2022/06/07 08:13:43;;;;;;;5.63;3.85;;;;;;;21.04;48.75;101314.91;4852026;29;20476;-87
2022/06/07 08:16:09;;;;;;;6.75;4.20;;;;;;;21.06;48.89;101311.34;4851745;29;20128;-86
2022/06/07 08:18:36;;;;;;;5.95;3.55;;;;;;;21.08;48.77;101312.19;4883745;29;20480;-88
2022/06/07 08:21:05;;;;;;;6.82;3.95;;;;;;;21.11;48.70;101312.13;4851671;29;20136;-89
2022/06/07 08:23:32;;;;;;;8.02;4.15;;;;;;;21.12;48.51;101315.59;4866953;29;20108;-87
2022/06/07 08:25:59;;;;;;;7.95;3.47;;;;;;;21.12;48.58;101319.13;4866950;29;20037;-87
2022/06/07 08:28:25;;;;;;;6.07;3.58;;;;;;;21.12;48.41;101319.13;4851641;29;20491;-88
2022/06/07 08:30:52;;;;;;;5.20;3.80;;;;;;;21.13;48.54;101325.19;4866602;29;20033;-87
2022/06/07 08:38:54;;;;;;;6.95;3.50;;;;;;;21.27;48.46;101327.56;4885586;29;20559;-87
2022/06/07 08:41:26;;;;;;;6.07;3.30;;;;;;;21.30;48.51;101323.16;4867001;29;20033;-87
2022/06/07 08:43:53;;;;;;;5.10;3.42;;;;;;;21.28;48.25;101324.94;4885038;29;20037;-87
2022/06/07 08:46:26;;;;;;;6.88;3.45;;;;;;;21.41;48.06;101325.63;4868125;29;20032;-87
2022/06/07 08:48:51;;;;;;;5.47;3.72;;;;;;;21.48;47.76;101323.75;4867144;29;20025;-87
2022/06/07 08:51:26;;;;;;;6.65;3.70;;;;;;;21.53;47.61;101324.53;4835843;29;20093;-87
2022/06/07 08:53:58;;;;;;;6.40;3.85;;;;;;;21.57;47.57;101323.59;4866795;29;20025;-88
2022/06/07 08:56:27;;;;;;;5.85;4.03;;;;;;;;;;4883039;29;20476;-88
2022/06/07 08:58:56;;;;;;;5.15;3.78;;;;;;;21.55;47.58;101323.59;4866005;29;20071;-88
2022/06/07 09:01:38;;;;;;;6.68;3.78;;;;;;;21.56;47.49;101333.19;4866723;29;20033;-86
2022/06/07 09:04:22;;;;;;;4.60;3.70;;;;;;;21.69;47.25;101331.22;4881955;29;20029;-87
2022/06/07 09:06:50;;;;;;;5.70;3.58;;;;;;;21.67;47.20;101332.16;4866004;29;20025;-87
2022/06/07 09:09:19;;;;;;;6.32;3.80;;;;;;;21.74;47.29;101331.13;4866005;29;20029;-86
2022/06/07 09:12:09;;;;;;;5.00;3.72;;;;;;;21.76;47.37;101326.72;4866644;29;20480;-88
2022/06/07 09:15:12;;;;;;;6.63;3.85;;;;;;;21.74;46.95;101324.13;4866129;29;20433;-87
2022/06/07 09:17:58;;;;;;;4.70;3.67;;;;;;;21.78;47.20;101322.31;4837403;29;20044;-86
2022/06/07 09:20:35;;;;;;;6.00;3.60;;;;;;;21.80;47.10;101317.91;4865775;29;20446;-86
2022/06/07 09:23:27;;;;;;;7.20;3.67;;;;;;;21.69;47.51;101330.38;4883268;29;20061;-87
2022/06/07 09:25:55;;;;;;;6.65;3.65;;;;;;;21.62;47.53;101326.13;4865810;29;20040;-88
2022/06/07 09:28:27;;;;;;;5.47;3.42;;;;;;;21.68;47.41;101333.84;4865619;29;20029;-87
2022/06/07 09:31:05;;;;;;;5.75;3.40;;;;;;;21.65;47.34;101331.31;4882336;29;20033;-87
2022/06/07 09:33:35;;;;;;;5.60;3.10;;;;;;;21.63;47.23;101327.84;4865505;29;20027;-77
2022/06/07 09:36:07;;;;;;;5.07;3.30;;;;;;;21.64;47.46;101321.72;4865063;29;20021;-80
2022/06/07 09:38:40;;;;;;;4.75;3.33;;;;;;;21.64;47.45;101321.72;4864950;29;20056;-78
2022/06/07 09:44:03;;;;;;;4.32;3.38;;;;;;;21.66;47.31;101327.78;4881786;29;20035;-77
2022/06/07 09:46:30;;;;;;;3.47;2.80;;;;;;;21.66;47.38;101327.78;4864846;29;20468;-79
2022/06/07 09:48:56;;;;;;;5.40;3.40;;;;;;;21.62;47.41;101328.72;4849480;29;20040;-78
2022/06/07 09:51:28;;;;;;;5.03;3.20;;;;;;;21.62;47.45;101326.97;4849520;29;20094;-78
2022/06/07 09:54:03;;;;;;;4.45;3.30;;;;;;;21.59;47.58;101326.19;4864950;29;20026;-77
2022/06/07 09:56:47;;;;;;;6.00;3.83;;;;;;;21.57;47.84;101334.06;4881247;29;20025;-78
2022/06/07 09:59:25;;;;;;;5.00;3.20;;;;;;;21.55;48.11;101335.84;4865106;29;20057;-78
2022/06/07 10:01:59;;;;;;;5.85;3.40;;;;;;;21.56;47.41;101333.19;4866130;29;20117;-79
2022/06/07 10:04:50;;;;;;;4.68;3.65;;;;;;;21.56;47.75;101334.97;4864622;29;20025;-87
2022/06/07 10:07:42;;;;;;;5.45;3.40;;;;;;;21.59;47.78;101331.41;4865035;29;20032;-87
2022/06/07 10:10:24;;;;;;;4.03;3.30;;;;;;;21.61;47.59;101337.50;4864842;29;20646;-89
2022/06/07 10:13:04;;;;;;;5.50;3.80;;;;;;;21.62;47.74;101333.97;4881407;29;20388;-87
2022/06/07 10:15:33;;;;;;;6.32;3.47;;;;;;;21.64;48.06;101345.28;4864703;29;20499;-86
2022/06/07 10:18:23;;;;;;;5.45;3.50;;;;;;;21.63;47.77;101343.56;4864684;29;20128;-87
2022/06/07 10:21:08;;;;;;;4.43;3.42;;;;;;;21.61;47.86;101340.13;4864597;29;20032;-87
2022/06/07 10:23:50;;;;;;;5.20;3.60;;;;;;;21.60;47.67;101336.63;4864493;29;20084;-88
2022/06/07 10:26:29;;;;;;;4.55;3.67;;;;;;;21.58;47.94;101330.56;4881849;29;20025;-88
2022/06/07 10:29:13;;;;;;;5.07;3.63;;;;;;;21.61;47.60;101337.50;4881409;29;20157;-88
2022/06/07 10:31:57;;;;;;;4.82;3.28;;;;;;;21.61;47.76;101340.13;4864595;29;20187;-88
2022/06/07 10:34:33;;;;;;;4.88;3.40;;;;;;;21.60;47.74;101347.13;4864193;29;20060;-88
2022/06/07 10:37:09;;;;;;;4.35;3.10;;;;;;;21.60;47.76;101346.22;4880897;29;20029;-87
2022/06/07 10:39:54;;;;;;;4.63;3.50;;;;;;;21.59;47.82;101339.28;4864210;29;20032;-89
2022/06/07 10:42:48;;;;;;;4.95;3.38;;;;;;;21.57;47.69;101341.91;4881043;29;20571;-87
2022/06/07 10:45:38;;;;;;;4.85;3.28;;;;;;;21.58;47.57;101341.03;4864014;29;20032;-88
2022/06/07 10:48:18;;;;;;;4.63;3.15;;;;;;;21.58;47.79;101338.41;4864443;29;20032;-87
2022/06/07 10:50:53;;;;;;;4.47;3.05;;;;;;;21.59;47.79;101342.75;4864514;29;20095;-88
2022/06/07 10:53:25;;;;;;;3.92;3.17;;;;;;;21.55;48.03;101344.56;4864254;29;20025;-88
2022/06/07 10:56:02;;;;;;;5.03;3.47;;;;;;;21.56;47.63;101340.19;4864060;29;20115;-87
2022/06/07 10:58:51;;;;;;;3.63;2.95;;;;;;;21.53;47.71;101343.72;4864170;29;20054;-89
2022/06/07 11:01:23;;;;;;;4.07;3.20;;;;;;;21.53;47.58;101335.84;4842439;29;20046;-87
2022/06/07 11:04:04;;;;;;;4.68;3.38;;;;;;;21.52;47.65;101336.75;4842352;29;20100;-88
2022/06/07 11:09:42;;;;;;;4.30;3.22;;;;;;;21.52;47.59;101349.84;4843929;29;20109;-87
2022/06/07 11:12:38;;;;;;;3.80;3.13;;;;;;;21.52;47.81;101346.38;4842434;29;20030;-87
2022/06/07 11:15:19;;;;;;;4.18;3.38;;;;;;;21.50;47.66;101346.41;4842440;29;20045;-88
2022/06/07 11:17:49;;;;;;;4.75;2.80;;;;;;;;;;4843599;29;20041;-87
2022/06/07 11:20:22;;;;;;;3.30;3.00;;;;;;;21.46;47.72;101349.09;4843201;29;20033;-88
2022/06/07 11:22:53;;;;;;;4.75;3.25;;;;;;;21.46;47.80;101349.09;4842293;29;20033;-88
2022/06/07 11:25:30;;;;;;;3.78;3.08;;;;;;;21.45;47.80;101349.97;4843450;29;20050;-88
2022/06/07 11:27:59;;;;;;;3.22;2.75;;;;;;;21.44;47.88;101345.66;4842019;29;20058;-87
2022/06/07 11:30:41;;;;;;;5.18;3.47;;;;;;;21.42;48.21;101345.66;4842309;29;20036;-80
2022/06/07 11:33:28;;;;;;;4.18;3.60;;;;;;;21.43;48.00;101354.41;4842742;29;20030;-79
2022/06/07 11:36:12;;;;;;;6.50;3.42;;;;;;;21.43;47.93;101350.03;4842935;29;20393;-80
2022/06/07 11:38:56;;;;;;;;;;;;;;;21.43;47.82;101344.78;4841986;29;20091;-79
2022/06/07 11:41:36;;;;;;;3.90;3.30;;;;;;;21.44;47.82;101349.13;4841708;29;19912;-79
2022/06/07 11:44:12;;;;;;;3.47;3.17;;;;;;;21.44;47.61;101348.25;4842982;29;20179;-79
2022/06/07 11:46:58;;;;;;;4.43;3.33;;;;;;;21.44;47.78;101345.66;4841700;29;20091;-79
2022/06/07 11:49:23;;;;;;;4.88;3.15;;;;;;;21.48;47.51;101347.31;4841934;29;20385;-79
2022/06/07 11:52:07;;;;;;;5.70;3.30;;;;;;;21.46;47.43;101355.19;4841886;29;20030;-79
2022/06/07 11:54:53;;;;;;;3.78;3.10;;;;;;;21.47;47.32;101351.72;4842766;29;20038;-79
2022/06/07 11:57:40;;;;;;;5.38;3.45;;;;;;;21.48;47.41;101355.19;4841897;29;20037;-79
2022/06/07 12:00:17;;;;;;;4.32;3.40;;;;;;;21.47;47.19;101354.31;4852897;29;20497;-79
2022/06/07 12:03:03;;;;;;;5.15;3.15;;;;;;;;;;4861009;29;20040;-78